sensor_id;sensor_type;location;lat;lon;timestamp;temperature;humidity
19348;DHT22;9810;52.480;9.806;2023-04-24T00:02:15;12.40;99.90
19348;DHT22;9810;52.480;9.806;2023-04-24T00:04:44;12.30;99.90
19348;DHT22;9810;52.480;9.806;2023-04-24T00:07:13;12.30;99.90
19348;DHT22;9810;52.480;9.806;2023-04-24T00:09:42;12.30;99.90
19348;DHT22;9810;52.480;9.806;2023-04-24T00:12:09;12.30;99.90
19348;DHT22;9810;52.480;9.806;2023-04-24T00:14:37;12.10;99.90
19348;DHT22;9810;52.480;9.806;2023-04-24T00:17:05;12.10;99.90
19348;DHT22;9810;52.480;9.806;2023-04-24T00:19:32;12.20;99.90
19348;DHT22;9810;52.480;9.806;2023-04-24T00:22:02;12.10;99.90
19348;DHT22;9810;52.480;9.806;2023-04-24T00:24:29;12.30;99.90
19348;DHT22;9810;52.480;9.806;2023-04-24T00:26:56;12.10;99.90
19348;DHT22;9810;52.480;9.806;2023-04-24T00:29:24;11.80;99.90
19348;DHT22;9810;52.480;9.806;2023-04-24T00:31:55;11.80;99.90
19348;DHT22;9810;52.480;9.806;2023-04-24T00:34:23;11.80;99.90
19348;DHT22;9810;52.480;9.806;2023-04-24T00:36:50;11.80;99.90
19348;DHT22;9810;52.480;9.806;2023-04-24T00:39:20;11.60;99.90
19348;DHT22;9810;52.480;9.806;2023-04-24T00:41:48;11.60;99.90
19348;DHT22;9810;52.480;9.806;2023-04-24T00:44:16;11.60;99.90
19348;DHT22;9810;52.480;9.806;2023-04-24T00:46:44;11.60;99.90
19348;DHT22;9810;52.480;9.806;2023-04-24T00:49:12;11.40;99.90
19348;DHT22;9810;52.480;9.806;2023-04-24T00:51:39;11.40;99.90
19348;DHT22;9810;52.480;9.806;2023-04-24T00:54:10;11.50;99.90
19348;DHT22;9810;52.480;9.806;2023-04-24T00:56:40;11.30;99.90
19348;DHT22;9810;52.480;9.806;2023-04-24T00:59:08;11.50;99.90
19348;DHT22;9810;52.480;9.806;2023-04-24T01:01:36;11.80;99.90
19348;DHT22;9810;52.480;9.806;2023-04-24T01:04:03;12.00;99.90
19348;DHT22;9810;52.480;9.806;2023-04-24T01:06:33;12.10;99.90
19348;DHT22;9810;52.480;9.806;2023-04-24T01:09:00;11.90;99.90
19348;DHT22;9810;52.480;9.806;2023-04-24T01:11:29;11.80;99.90
19348;DHT22;9810;52.480;9.806;2023-04-24T01:13:58;11.60;99.90
19348;DHT22;9810;52.480;9.806;2023-04-24T01:16:26;11.60;99.90
19348;DHT22;9810;52.480;9.806;2023-04-24T01:18:54;11.50;99.90
19348;DHT22;9810;52.480;9.806;2023-04-24T01:21:23;11.80;99.90
19348;DHT22;9810;52.480;9.806;2023-04-24T01:23:55;11.80;99.90
19348;DHT22;9810;52.480;9.806;2023-04-24T01:26:23;11.70;99.90
19348;DHT22;9810;52.480;9.806;2023-04-24T01:28:51;11.70;99.90
19348;DHT22;9810;52.480;9.806;2023-04-24T01:31:19;11.70;99.90
19348;DHT22;9810;52.480;9.806;2023-04-24T01:33:47;11.80;99.90
19348;DHT22;9810;52.480;9.806;2023-04-24T01:36:14;11.90;99.90
19348;DHT22;9810;52.480;9.806;2023-04-24T01:38:44;11.70;99.90
19348;DHT22;9810;52.480;9.806;2023-04-24T01:41:16;11.70;99.90
19348;DHT22;9810;52.480;9.806;2023-04-24T01:43:43;11.60;99.90
19348;DHT22;9810;52.480;9.806;2023-04-24T01:46:10;11.80;99.90
19348;DHT22;9810;52.480;9.806;2023-04-24T01:48:38;11.80;99.90
19348;DHT22;9810;52.480;9.806;2023-04-24T01:51:05;11.40;99.90
19348;DHT22;9810;52.480;9.806;2023-04-24T01:53:33;11.40;99.90
19348;DHT22;9810;52.480;9.806;2023-04-24T01:56:01;11.40;99.90
19348;DHT22;9810;52.480;9.806;2023-04-24T01:58:30;11.40;99.90
19348;DHT22;9810;52.480;9.806;2023-04-24T02:00:57;11.60;99.90
19348;DHT22;9810;52.480;9.806;2023-04-24T02:03:26;11.30;99.90
19348;DHT22;9810;52.480;9.806;2023-04-24T02:05:53;11.10;99.90
19348;DHT22;9810;52.480;9.806;2023-04-24T02:08:20;11.00;99.90
19348;DHT22;9810;52.480;9.806;2023-04-24T02:10:48;10.70;99.90
19348;DHT22;9810;52.480;9.806;2023-04-24T02:13:15;10.60;99.90
19348;DHT22;9810;52.480;9.806;2023-04-24T02:15:44;10.40;99.90
19348;DHT22;9810;52.480;9.806;2023-04-24T02:18:12;10.20;99.90
19348;DHT22;9810;52.480;9.806;2023-04-24T02:20:39;10.20;99.90
19348;DHT22;9810;52.480;9.806;2023-04-24T02:23:06;9.90;99.90
19348;DHT22;9810;52.480;9.806;2023-04-24T02:25:34;10.00;99.90
19348;DHT22;9810;52.480;9.806;2023-04-24T02:28:01;10.00;99.90
19348;DHT22;9810;52.480;9.806;2023-04-24T02:30:29;10.10;99.90
19348;DHT22;9810;52.480;9.806;2023-04-24T02:32:58;10.40;99.90
19348;DHT22;9810;52.480;9.806;2023-04-24T02:35:25;10.50;99.90
19348;DHT22;9810;52.480;9.806;2023-04-24T02:37:53;10.40;99.90
19348;DHT22;9810;52.480;9.806;2023-04-24T02:40:20;10.30;99.90
19348;DHT22;9810;52.480;9.806;2023-04-24T02:42:47;10.70;99.90
19348;DHT22;9810;52.480;9.806;2023-04-24T02:45:15;10.50;99.90
19348;DHT22;9810;52.480;9.806;2023-04-24T02:47:42;11.00;99.90
19348;DHT22;9810;52.480;9.806;2023-04-24T02:50:11;11.10;99.90
19348;DHT22;9810;52.480;9.806;2023-04-24T02:52:39;10.80;99.90
19348;DHT22;9810;52.480;9.806;2023-04-24T02:55:08;11.10;99.90
19348;DHT22;9810;52.480;9.806;2023-04-24T02:57:35;11.20;99.90
19348;DHT22;9810;52.480;9.806;2023-04-24T03:00:03;10.80;99.90
19348;DHT22;9810;52.480;9.806;2023-04-24T03:02:32;10.60;99.90
19348;DHT22;9810;52.480;9.806;2023-04-24T03:05:01;10.60;99.90
19348;DHT22;9810;52.480;9.806;2023-04-24T03:07:31;10.70;99.90
19348;DHT22;9810;52.480;9.806;2023-04-24T03:09:59;10.40;99.90
19348;DHT22;9810;52.480;9.806;2023-04-24T03:12:26;10.20;99.90
19348;DHT22;9810;52.480;9.806;2023-04-24T03:14:53;10.00;99.90
19348;DHT22;9810;52.480;9.806;2023-04-24T03:17:21;10.00;99.90
19348;DHT22;9810;52.480;9.806;2023-04-24T03:19:48;10.10;99.90
19348;DHT22;9810;52.480;9.806;2023-04-24T03:22:15;10.00;99.90
19348;DHT22;9810;52.480;9.806;2023-04-24T03:24:44;10.50;99.90
19348;DHT22;9810;52.480;9.806;2023-04-24T03:27:11;10.70;99.90
19348;DHT22;9810;52.480;9.806;2023-04-24T03:29:41;10.90;99.90
19348;DHT22;9810;52.480;9.806;2023-04-24T03:32:09;11.00;99.90
19348;DHT22;9810;52.480;9.806;2023-04-24T03:34:36;11.10;99.90
19348;DHT22;9810;52.480;9.806;2023-04-24T03:37:03;11.20;99.90
19348;DHT22;9810;52.480;9.806;2023-04-24T03:39:30;11.10;99.90
19348;DHT22;9810;52.480;9.806;2023-04-24T03:42:01;11.00;99.90
19348;DHT22;9810;52.480;9.806;2023-04-24T03:44:29;10.80;99.90
19348;DHT22;9810;52.480;9.806;2023-04-24T03:47:00;11.10;99.90
19348;DHT22;9810;52.480;9.806;2023-04-24T03:49:27;11.10;99.90
19348;DHT22;9810;52.480;9.806;2023-04-24T03:51:55;11.00;99.90
19348;DHT22;9810;52.480;9.806;2023-04-24T03:54:23;10.90;99.90
19348;DHT22;9810;52.480;9.806;2023-04-24T03:56:50;10.70;99.90
19348;DHT22;9810;52.480;9.806;2023-04-24T03:59:19;10.80;99.90
19348;DHT22;9810;52.480;9.806;2023-04-24T04:01:46;10.80;99.90
19348;DHT22;9810;52.480;9.806;2023-04-24T04:04:14;10.80;99.90
19348;DHT22;9810;52.480;9.806;2023-04-24T04:06:41;10.70;99.90
19348;DHT22;9810;52.480;9.806;2023-04-24T04:09:12;10.50;99.90
19348;DHT22;9810;52.480;9.806;2023-04-24T04:11:40;10.50;99.90
19348;DHT22;9810;52.480;9.806;2023-04-24T04:14:07;10.50;99.90
19348;DHT22;9810;52.480;9.806;2023-04-24T04:16:36;10.50;99.90
19348;DHT22;9810;52.480;9.806;2023-04-24T04:19:04;10.60;99.90
19348;DHT22;9810;52.480;9.806;2023-04-24T04:21:31;10.50;99.90
19348;DHT22;9810;52.480;9.806;2023-04-24T04:23:59;10.50;99.90
19348;DHT22;9810;52.480;9.806;2023-04-24T04:26:26;10.40;99.90
19348;DHT22;9810;52.480;9.806;2023-04-24T04:28:54;10.50;99.90
19348;DHT22;9810;52.480;9.806;2023-04-24T04:31:21;10.40;99.90
19348;DHT22;9810;52.480;9.806;2023-04-24T04:33:50;10.60;99.90
19348;DHT22;9810;52.480;9.806;2023-04-24T04:36:17;10.60;99.90
19348;DHT22;9810;52.480;9.806;2023-04-24T04:38:45;10.60;99.90
19348;DHT22;9810;52.480;9.806;2023-04-24T04:41:12;10.60;99.90
19348;DHT22;9810;52.480;9.806;2023-04-24T04:43:42;10.60;99.90
19348;DHT22;9810;52.480;9.806;2023-04-24T04:46:09;10.80;99.90
19348;DHT22;9810;52.480;9.806;2023-04-24T04:48:37;10.60;99.90
19348;DHT22;9810;52.480;9.806;2023-04-24T04:51:06;10.60;99.90
19348;DHT22;9810;52.480;9.806;2023-04-24T04:53:34;10.50;99.90
19348;DHT22;9810;52.480;9.806;2023-04-24T04:56:02;10.60;99.90
19348;DHT22;9810;52.480;9.806;2023-04-24T04:58:29;10.60;99.90
19348;DHT22;9810;52.480;9.806;2023-04-24T05:00:56;10.60;99.90
19348;DHT22;9810;52.480;9.806;2023-04-24T05:03:24;10.40;99.90
19348;DHT22;9810;52.480;9.806;2023-04-24T05:05:52;10.80;99.90
19348;DHT22;9810;52.480;9.806;2023-04-24T05:08:21;11.20;99.90
19348;DHT22;9810;52.480;9.806;2023-04-24T05:10:48;10.90;99.90
19348;DHT22;9810;52.480;9.806;2023-04-24T05:13:15;11.30;99.90
19348;DHT22;9810;52.480;9.806;2023-04-24T05:15:43;11.40;99.90
19348;DHT22;9810;52.480;9.806;2023-04-24T05:18:10;11.40;99.90
19348;DHT22;9810;52.480;9.806;2023-04-24T05:20:38;11.20;99.90
19348;DHT22;9810;52.480;9.806;2023-04-24T05:23:05;10.70;99.90
19348;DHT22;9810;52.480;9.806;2023-04-24T05:25:34;10.60;99.90
19348;DHT22;9810;52.480;9.806;2023-04-24T05:28:01;10.60;99.90
19348;DHT22;9810;52.480;9.806;2023-04-24T05:30:28;10.80;99.90
19348;DHT22;9810;52.480;9.806;2023-04-24T05:32:56;10.90;99.90
19348;DHT22;9810;52.480;9.806;2023-04-24T05:35:23;10.90;99.90
19348;DHT22;9810;52.480;9.806;2023-04-24T05:37:53;11.10;99.90
19348;DHT22;9810;52.480;9.806;2023-04-24T05:40:20;11.90;99.90
19348;DHT22;9810;52.480;9.806;2023-04-24T05:42:49;12.70;99.90
19348;DHT22;9810;52.480;9.806;2023-04-24T05:45:17;13.00;99.90
19348;DHT22;9810;52.480;9.806;2023-04-24T05:47:44;13.00;99.90
19348;DHT22;9810;52.480;9.806;2023-04-24T05:50:13;13.50;99.90
19348;DHT22;9810;52.480;9.806;2023-04-24T05:52:41;13.70;99.90
19348;DHT22;9810;52.480;9.806;2023-04-24T05:55:08;12.80;99.90
19348;DHT22;9810;52.480;9.806;2023-04-24T05:57:36;12.70;99.90
19348;DHT22;9810;52.480;9.806;2023-04-24T06:00:07;12.90;99.90
19348;DHT22;9810;52.480;9.806;2023-04-24T06:02:34;13.00;99.90
19348;DHT22;9810;52.480;9.806;2023-04-24T06:05:01;12.90;99.90
19348;DHT22;9810;52.480;9.806;2023-04-24T06:07:30;12.90;99.90
19348;DHT22;9810;52.480;9.806;2023-04-24T06:09:57;13.10;99.90
19348;DHT22;9810;52.480;9.806;2023-04-24T06:12:25;13.10;99.90
19348;DHT22;9810;52.480;9.806;2023-04-24T06:14:53;13.10;99.90
19348;DHT22;9810;52.480;9.806;2023-04-24T06:17:22;13.20;99.90
19348;DHT22;9810;52.480;9.806;2023-04-24T06:19:52;13.50;99.90
19348;DHT22;9810;52.480;9.806;2023-04-24T06:22:20;13.30;99.90
19348;DHT22;9810;52.480;9.806;2023-04-24T06:24:47;13.50;99.90
19348;DHT22;9810;52.480;9.806;2023-04-24T06:27:15;13.60;99.90
19348;DHT22;9810;52.480;9.806;2023-04-24T06:29:42;13.80;99.90
19348;DHT22;9810;52.480;9.806;2023-04-24T06:32:10;13.60;99.90
19348;DHT22;9810;52.480;9.806;2023-04-24T06:34:39;12.80;99.90
19348;DHT22;9810;52.480;9.806;2023-04-24T06:37:06;12.60;99.90
19348;DHT22;9810;52.480;9.806;2023-04-24T06:39:33;13.20;99.90
19348;DHT22;9810;52.480;9.806;2023-04-24T06:42:01;12.80;99.90
19348;DHT22;9810;52.480;9.806;2023-04-24T06:44:28;12.50;99.90
19348;DHT22;9810;52.480;9.806;2023-04-24T06:46:55;12.50;99.90
19348;DHT22;9810;52.480;9.806;2023-04-24T06:49:23;12.50;99.90
19348;DHT22;9810;52.480;9.806;2023-04-24T06:51:52;12.50;99.90
19348;DHT22;9810;52.480;9.806;2023-04-24T06:54:19;12.60;99.90
19348;DHT22;9810;52.480;9.806;2023-04-24T06:56:47;12.70;99.90
19348;DHT22;9810;52.480;9.806;2023-04-24T06:59:17;12.50;99.90
19348;DHT22;9810;52.480;9.806;2023-04-24T07:01:44;12.60;99.90
19348;DHT22;9810;52.480;9.806;2023-04-24T07:04:12;12.60;99.90
19348;DHT22;9810;52.480;9.806;2023-04-24T07:06:39;12.60;99.90
19348;DHT22;9810;52.480;9.806;2023-04-24T07:09:08;12.60;99.90
19348;DHT22;9810;52.480;9.806;2023-04-24T07:11:36;12.40;99.90
19348;DHT22;9810;52.480;9.806;2023-04-24T07:14:05;12.30;99.90
19348;DHT22;9810;52.480;9.806;2023-04-24T07:16:32;12.30;99.90
19348;DHT22;9810;52.480;9.806;2023-04-24T07:19:00;12.50;99.90
19348;DHT22;9810;52.480;9.806;2023-04-24T07:21:27;12.50;99.90
19348;DHT22;9810;52.480;9.806;2023-04-24T07:23:54;12.50;99.90
19348;DHT22;9810;52.480;9.806;2023-04-24T07:26:23;12.50;99.90
19348;DHT22;9810;52.480;9.806;2023-04-24T07:28:51;12.30;99.90
19348;DHT22;9810;52.480;9.806;2023-04-24T07:31:18;12.30;99.90
19348;DHT22;9810;52.480;9.806;2023-04-24T07:33:46;12.50;99.90
19348;DHT22;9810;52.480;9.806;2023-04-24T07:36:14;12.50;99.90
19348;DHT22;9810;52.480;9.806;2023-04-24T07:38:44;12.60;99.90
19348;DHT22;9810;52.480;9.806;2023-04-24T07:41:12;12.70;99.90
19348;DHT22;9810;52.480;9.806;2023-04-24T07:43:40;12.50;99.90
19348;DHT22;9810;52.480;9.806;2023-04-24T07:46:08;12.50;99.90
19348;DHT22;9810;52.480;9.806;2023-04-24T07:48:36;12.50;99.90
19348;DHT22;9810;52.480;9.806;2023-04-24T07:51:03;12.40;99.90
19348;DHT22;9810;52.480;9.806;2023-04-24T07:53:31;12.50;99.90
19348;DHT22;9810;52.480;9.806;2023-04-24T07:55:59;12.50;99.90
19348;DHT22;9810;52.480;9.806;2023-04-24T07:58:26;12.60;99.90
19348;DHT22;9810;52.480;9.806;2023-04-24T08:00:55;12.80;99.90
19348;DHT22;9810;52.480;9.806;2023-04-24T08:03:22;12.80;99.90
19348;DHT22;9810;52.480;9.806;2023-04-24T08:05:57;12.60;99.90
19348;DHT22;9810;52.480;9.806;2023-04-24T08:08:25;12.40;99.90
19348;DHT22;9810;52.480;9.806;2023-04-24T08:10:52;12.40;99.90
19348;DHT22;9810;52.480;9.806;2023-04-24T08:13:20;12.80;99.90
19348;DHT22;9810;52.480;9.806;2023-04-24T08:15:47;13.10;99.90
19348;DHT22;9810;52.480;9.806;2023-04-24T08:18:16;13.70;99.90
19348;DHT22;9810;52.480;9.806;2023-04-24T08:20:44;14.30;99.90
19348;DHT22;9810;52.480;9.806;2023-04-24T08:23:12;13.70;99.90
19348;DHT22;9810;52.480;9.806;2023-04-24T08:25:39;13.40;99.90
19348;DHT22;9810;52.480;9.806;2023-04-24T08:28:09;13.30;99.90
19348;DHT22;9810;52.480;9.806;2023-04-24T08:30:36;13.20;99.90
19348;DHT22;9810;52.480;9.806;2023-04-24T08:33:04;13.20;99.90
19348;DHT22;9810;52.480;9.806;2023-04-24T08:35:32;13.00;99.90
19348;DHT22;9810;52.480;9.806;2023-04-24T08:38:00;12.90;99.90
19348;DHT22;9810;52.480;9.806;2023-04-24T08:40:28;13.00;99.90
19348;DHT22;9810;52.480;9.806;2023-04-24T08:42:56;12.90;99.90
19348;DHT22;9810;52.480;9.806;2023-04-24T08:45:24;13.60;99.90
19348;DHT22;9810;52.480;9.806;2023-04-24T08:47:53;13.90;99.90
19348;DHT22;9810;52.480;9.806;2023-04-24T08:50:21;14.10;99.90
19348;DHT22;9810;52.480;9.806;2023-04-24T08:52:51;13.90;99.90
19348;DHT22;9810;52.480;9.806;2023-04-24T08:55:20;14.00;99.90
19348;DHT22;9810;52.480;9.806;2023-04-24T08:57:53;14.10;99.90
19348;DHT22;9810;52.480;9.806;2023-04-24T09:00:21;13.80;99.90
19348;DHT22;9810;52.480;9.806;2023-04-24T09:02:49;13.60;99.90
19348;DHT22;9810;52.480;9.806;2023-04-24T09:05:21;13.40;99.90
19348;DHT22;9810;52.480;9.806;2023-04-24T09:07:54;13.60;99.90
19348;DHT22;9810;52.480;9.806;2023-04-24T09:10:23;13.40;99.90
19348;DHT22;9810;52.480;9.806;2023-04-24T09:12:51;13.20;99.90
19348;DHT22;9810;52.480;9.806;2023-04-24T09:15:20;13.00;99.90
19348;DHT22;9810;52.480;9.806;2023-04-24T09:17:47;13.40;99.90
19348;DHT22;9810;52.480;9.806;2023-04-24T09:20:15;13.30;99.90
19348;DHT22;9810;52.480;9.806;2023-04-24T09:22:43;13.00;99.90
19348;DHT22;9810;52.480;9.806;2023-04-24T09:25:13;13.10;99.90
19348;DHT22;9810;52.480;9.806;2023-04-24T09:27:43;13.10;99.90
19348;DHT22;9810;52.480;9.806;2023-04-24T09:30:12;13.00;99.90
19348;DHT22;9810;52.480;9.806;2023-04-24T09:32:40;13.00;99.90
19348;DHT22;9810;52.480;9.806;2023-04-24T09:35:10;12.90;99.90
19348;DHT22;9810;52.480;9.806;2023-04-24T09:37:39;13.20;99.90
19348;DHT22;9810;52.480;9.806;2023-04-24T09:40:14;13.10;99.90
19348;DHT22;9810;52.480;9.806;2023-04-24T09:42:45;13.10;99.90
19348;DHT22;9810;52.480;9.806;2023-04-24T09:45:13;12.80;99.90
19348;DHT22;9810;52.480;9.806;2023-04-24T09:47:41;12.70;99.90
19348;DHT22;9810;52.480;9.806;2023-04-24T09:50:13;12.50;99.90
19348;DHT22;9810;52.480;9.806;2023-04-24T09:52:42;12.50;99.90
19348;DHT22;9810;52.480;9.806;2023-04-24T09:55:20;12.70;99.90
19348;DHT22;9810;52.480;9.806;2023-04-24T09:57:48;12.50;99.90
19348;DHT22;9810;52.480;9.806;2023-04-24T10:00:22;12.60;99.90
19348;DHT22;9810;52.480;9.806;2023-04-24T10:02:54;12.80;99.90
19348;DHT22;9810;52.480;9.806;2023-04-24T10:05:24;12.80;99.90
19348;DHT22;9810;52.480;9.806;2023-04-24T10:07:52;12.90;99.90
19348;DHT22;9810;52.480;9.806;2023-04-24T10:10:24;13.00;99.90
19348;DHT22;9810;52.480;9.806;2023-04-24T10:12:52;12.80;99.90
19348;DHT22;9810;52.480;9.806;2023-04-24T10:15:20;12.90;99.90
19348;DHT22;9810;52.480;9.806;2023-04-24T10:17:49;12.60;99.90
19348;DHT22;9810;52.480;9.806;2023-04-24T10:20:19;12.60;99.90
19348;DHT22;9810;52.480;9.806;2023-04-24T10:22:48;12.70;99.90
19348;DHT22;9810;52.480;9.806;2023-04-24T10:25:19;12.80;99.90
19348;DHT22;9810;52.480;9.806;2023-04-24T10:27:49;12.90;99.90
19348;DHT22;9810;52.480;9.806;2023-04-24T10:30:18;13.00;99.90
19348;DHT22;9810;52.480;9.806;2023-04-24T10:32:46;12.90;99.90
19348;DHT22;9810;52.480;9.806;2023-04-24T10:35:15;12.90;99.90
19348;DHT22;9810;52.480;9.806;2023-04-24T10:37:44;12.70;99.90
19348;DHT22;9810;52.480;9.806;2023-04-24T10:40:18;12.70;99.90
19348;DHT22;9810;52.480;9.806;2023-04-24T10:43:08;12.90;99.90
19348;DHT22;9810;52.480;9.806;2023-04-24T10:45:41;13.40;99.90
19348;DHT22;9810;52.480;9.806;2023-04-24T10:48:44;13.40;99.90
19348;DHT22;9810;52.480;9.806;2023-04-24T10:51:46;13.00;99.90
19348;DHT22;9810;52.480;9.806;2023-04-24T10:54:29;12.90;99.90
19348;DHT22;9810;52.480;9.806;2023-04-24T11:00:25;12.80;99.90
19348;DHT22;9810;52.480;9.806;2023-04-24T11:02:54;12.60;99.90
19348;DHT22;9810;52.480;9.806;2023-04-24T11:05:48;12.60;99.90
19348;DHT22;9810;52.480;9.806;2023-04-24T11:09:11;12.50;99.90
19348;DHT22;9810;52.480;9.806;2023-04-24T11:12:10;12.40;99.90
19348;DHT22;9810;52.480;9.806;2023-04-24T11:15:16;12.30;99.90
19348;DHT22;9810;52.480;9.806;2023-04-24T11:24:50;12.20;99.90
19348;DHT22;9810;52.480;9.806;2023-04-24T11:28:05;12.30;99.90
19348;DHT22;9810;52.480;9.806;2023-04-24T11:30:46;12.20;99.90
19348;DHT22;9810;52.480;9.806;2023-04-24T11:33:27;12.20;99.90
19348;DHT22;9810;52.480;9.806;2023-04-24T11:36:08;12.20;99.90
19348;DHT22;9810;52.480;9.806;2023-04-24T11:38:35;12.20;99.90
19348;DHT22;9810;52.480;9.806;2023-04-24T11:41:05;12.20;99.90
19348;DHT22;9810;52.480;9.806;2023-04-24T11:43:34;12.20;99.90
19348;DHT22;9810;52.480;9.806;2023-04-24T11:46:01;12.10;99.90
19348;DHT22;9810;52.480;9.806;2023-04-24T11:48:29;12.10;99.90
19348;DHT22;9810;52.480;9.806;2023-04-24T11:51:12;12.30;99.90
19348;DHT22;9810;52.480;9.806;2023-04-24T11:53:39;12.40;99.90
19348;DHT22;9810;52.480;9.806;2023-04-24T11:56:10;12.60;99.90
19348;DHT22;9810;52.480;9.806;2023-04-24T11:58:38;12.40;99.90
19348;DHT22;9810;52.480;9.806;2023-04-24T12:01:06;12.50;99.90
19348;DHT22;9810;52.480;9.806;2023-04-24T12:03:33;12.40;99.90
19348;DHT22;9810;52.480;9.806;2023-04-24T12:06:07;12.40;99.90
19348;DHT22;9810;52.480;9.806;2023-04-24T12:08:34;12.50;99.90
19348;DHT22;9810;52.480;9.806;2023-04-24T12:11:03;12.50;99.90
19348;DHT22;9810;52.480;9.806;2023-04-24T12:13:33;12.50;99.90
19348;DHT22;9810;52.480;9.806;2023-04-24T12:16:05;12.60;99.90
19348;DHT22;9810;52.480;9.806;2023-04-24T12:18:33;12.70;99.90
19348;DHT22;9810;52.480;9.806;2023-04-24T12:21:17;12.70;99.90
19348;DHT22;9810;52.480;9.806;2023-04-24T12:23:46;12.70;99.90
19348;DHT22;9810;52.480;9.806;2023-04-24T12:26:16;12.70;99.90
19348;DHT22;9810;52.480;9.806;2023-04-24T12:28:48;12.70;99.90
19348;DHT22;9810;52.480;9.806;2023-04-24T12:31:16;12.60;99.90
19348;DHT22;9810;52.480;9.806;2023-04-24T12:33:43;12.50;99.90
19348;DHT22;9810;52.480;9.806;2023-04-24T12:36:11;12.30;99.90
19348;DHT22;9810;52.480;9.806;2023-04-24T12:38:39;12.10;99.90
19348;DHT22;9810;52.480;9.806;2023-04-24T12:41:08;12.10;99.90
19348;DHT22;9810;52.480;9.806;2023-04-24T12:43:36;12.20;99.90
19348;DHT22;9810;52.480;9.806;2023-04-24T12:46:05;12.20;99.90
19348;DHT22;9810;52.480;9.806;2023-04-24T12:48:32;12.00;99.90
19348;DHT22;9810;52.480;9.806;2023-04-24T12:51:00;12.10;99.90
19348;DHT22;9810;52.480;9.806;2023-04-24T12:53:28;12.10;99.90
19348;DHT22;9810;52.480;9.806;2023-04-24T12:55:56;12.20;99.90
19348;DHT22;9810;52.480;9.806;2023-04-24T12:58:24;12.10;99.90
19348;DHT22;9810;52.480;9.806;2023-04-24T13:00:51;12.00;99.90
19348;DHT22;9810;52.480;9.806;2023-04-24T13:03:24;11.90;99.90
19348;DHT22;9810;52.480;9.806;2023-04-24T13:05:51;11.80;99.90
19348;DHT22;9810;52.480;9.806;2023-04-24T13:08:19;11.70;99.90
19348;DHT22;9810;52.480;9.806;2023-04-24T13:10:46;11.80;99.90
19348;DHT22;9810;52.480;9.806;2023-04-24T13:13:14;11.50;99.90
19348;DHT22;9810;52.480;9.806;2023-04-24T13:15:41;11.50;99.90
19348;DHT22;9810;52.480;9.806;2023-04-24T13:18:08;11.50;99.90
19348;DHT22;9810;52.480;9.806;2023-04-24T13:20:37;11.30;99.90
19348;DHT22;9810;52.480;9.806;2023-04-24T13:23:06;11.20;99.90
19348;DHT22;9810;52.480;9.806;2023-04-24T13:25:35;11.10;99.90
19348;DHT22;9810;52.480;9.806;2023-04-24T13:28:05;11.10;99.90
19348;DHT22;9810;52.480;9.806;2023-04-24T13:30:32;10.90;99.90
19348;DHT22;9810;52.480;9.806;2023-04-24T13:33:00;10.90;99.90
19348;DHT22;9810;52.480;9.806;2023-04-24T13:35:27;11.10;99.90
19348;DHT22;9810;52.480;9.806;2023-04-24T13:38:02;11.00;99.90
19348;DHT22;9810;52.480;9.806;2023-04-24T13:40:34;11.10;99.90
19348;DHT22;9810;52.480;9.806;2023-04-24T13:43:01;10.90;99.90
19348;DHT22;9810;52.480;9.806;2023-04-24T13:45:31;10.80;99.90
19348;DHT22;9810;52.480;9.806;2023-04-24T13:47:58;10.70;99.90
19348;DHT22;9810;52.480;9.806;2023-04-24T13:50:29;10.70;99.90
19348;DHT22;9810;52.480;9.806;2023-04-24T13:52:58;11.00;99.90
19348;DHT22;9810;52.480;9.806;2023-04-24T13:55:28;10.60;99.90
19348;DHT22;9810;52.480;9.806;2023-04-24T13:57:56;10.80;99.90
19348;DHT22;9810;52.480;9.806;2023-04-24T14:00:24;11.00;99.90
19348;DHT22;9810;52.480;9.806;2023-04-24T14:02:51;10.80;99.90
19348;DHT22;9810;52.480;9.806;2023-04-24T14:05:19;10.90;99.90
19348;DHT22;9810;52.480;9.806;2023-04-24T14:07:47;10.60;99.90
19348;DHT22;9810;52.480;9.806;2023-04-24T14:10:14;10.50;99.90
19348;DHT22;9810;52.480;9.806;2023-04-24T14:12:43;10.10;99.90
19348;DHT22;9810;52.480;9.806;2023-04-24T14:15:11;10.00;99.90
19348;DHT22;9810;52.480;9.806;2023-04-24T14:17:40;9.90;99.90
19348;DHT22;9810;52.480;9.806;2023-04-24T14:20:08;10.10;99.90
19348;DHT22;9810;52.480;9.806;2023-04-24T14:22:36;10.00;99.90
19348;DHT22;9810;52.480;9.806;2023-04-24T14:25:04;9.90;99.90
19348;DHT22;9810;52.480;9.806;2023-04-24T14:27:34;9.70;99.90
19348;DHT22;9810;52.480;9.806;2023-04-24T14:30:09;9.80;99.90
19348;DHT22;9810;52.480;9.806;2023-04-24T14:32:37;10.10;99.90
19348;DHT22;9810;52.480;9.806;2023-04-24T14:35:06;10.10;99.90
19348;DHT22;9810;52.480;9.806;2023-04-24T14:37:33;9.90;99.90
19348;DHT22;9810;52.480;9.806;2023-04-24T14:40:01;10.20;99.90
19348;DHT22;9810;52.480;9.806;2023-04-24T14:42:32;9.80;99.90
19348;DHT22;9810;52.480;9.806;2023-04-24T14:45:02;10.00;99.90
19348;DHT22;9810;52.480;9.806;2023-04-24T14:47:32;10.10;99.90
19348;DHT22;9810;52.480;9.806;2023-04-24T14:49:59;9.70;99.90
19348;DHT22;9810;52.480;9.806;2023-04-24T14:52:30;10.10;99.90
19348;DHT22;9810;52.480;9.806;2023-04-24T14:54:57;9.80;99.90
19348;DHT22;9810;52.480;9.806;2023-04-24T14:57:25;9.70;99.90
19348;DHT22;9810;52.480;9.806;2023-04-24T14:59:52;9.60;99.90
19348;DHT22;9810;52.480;9.806;2023-04-24T15:02:20;9.70;99.90
19348;DHT22;9810;52.480;9.806;2023-04-24T15:04:49;9.70;99.90
19348;DHT22;9810;52.480;9.806;2023-04-24T15:07:16;9.90;99.90
19348;DHT22;9810;52.480;9.806;2023-04-24T15:09:43;10.10;99.90
19348;DHT22;9810;52.480;9.806;2023-04-24T15:12:12;10.10;99.90
19348;DHT22;9810;52.480;9.806;2023-04-24T15:14:40;10.10;99.90
19348;DHT22;9810;52.480;9.806;2023-04-24T15:17:09;9.80;99.90
19348;DHT22;9810;52.480;9.806;2023-04-24T15:19:36;10.00;99.90
19348;DHT22;9810;52.480;9.806;2023-04-24T15:22:05;10.00;99.90
19348;DHT22;9810;52.480;9.806;2023-04-24T15:24:33;9.90;99.90
19348;DHT22;9810;52.480;9.806;2023-04-24T15:27:00;10.10;99.90
19348;DHT22;9810;52.480;9.806;2023-04-24T15:29:29;9.90;99.90
19348;DHT22;9810;52.480;9.806;2023-04-24T15:31:56;10.20;99.90
19348;DHT22;9810;52.480;9.806;2023-04-24T15:34:23;10.10;99.90
19348;DHT22;9810;52.480;9.806;2023-04-24T15:36:51;10.10;99.90
19348;DHT22;9810;52.480;9.806;2023-04-24T15:39:22;9.90;99.90
19348;DHT22;9810;52.480;9.806;2023-04-24T15:41:50;10.10;99.90
19348;DHT22;9810;52.480;9.806;2023-04-24T15:44:18;10.20;99.90
19348;DHT22;9810;52.480;9.806;2023-04-24T15:46:46;10.10;99.90
19348;DHT22;9810;52.480;9.806;2023-04-24T15:49:14;10.00;99.90
19348;DHT22;9810;52.480;9.806;2023-04-24T15:51:44;10.00;99.90
19348;DHT22;9810;52.480;9.806;2023-04-24T15:54:12;9.80;99.90
19348;DHT22;9810;52.480;9.806;2023-04-24T15:56:41;9.90;99.90
19348;DHT22;9810;52.480;9.806;2023-04-24T15:59:09;10.00;99.90
19348;DHT22;9810;52.480;9.806;2023-04-24T16:01:37;9.90;99.90
19348;DHT22;9810;52.480;9.806;2023-04-24T16:04:04;9.80;99.90
19348;DHT22;9810;52.480;9.806;2023-04-24T16:06:31;9.90;99.90
19348;DHT22;9810;52.480;9.806;2023-04-24T16:08:59;9.80;99.90
19348;DHT22;9810;52.480;9.806;2023-04-24T16:11:26;10.00;99.90